sensor_id;sensor_type;location;lat;lon;timestamp;P1;durP1;ratioP1;P2;durP2;ratioP2
9997;SDS011;5038;53.064;8.624;2023-04-24T00:01:51;4.57;;;3.13;;
9997;SDS011;5038;53.064;8.624;2023-04-24T00:04:20;5.60;;;3.70;;
9997;SDS011;5038;53.064;8.624;2023-04-24T00:06:48;4.57;;;3.30;;
9997;SDS011;5038;53.064;8.624;2023-04-24T00:09:20;4.97;;;3.60;;
9997;SDS011;5038;53.064;8.624;2023-04-24T00:11:48;5.07;;;4.03;;
9997;SDS011;5038;53.064;8.624;2023-04-24T00:14:16;5.13;;;3.87;;
9997;SDS011;5038;53.064;8.624;2023-04-24T00:16:45;5.57;;;4.00;;
9997;SDS011;5038;53.064;8.624;2023-04-24T00:19:15;4.20;;;3.77;;
9997;SDS011;5038;53.064;8.624;2023-04-24T00:21:43;4.20;;;3.40;;
9997;SDS011;5038;53.064;8.624;2023-04-24T00:24:11;6.20;;;4.17;;
9997;SDS011;5038;53.064;8.624;2023-04-24T00:26:39;4.50;;;3.67;;
9997;SDS011;5038;53.064;8.624;2023-04-24T00:29:07;4.60;;;4.10;;
9997;SDS011;5038;53.064;8.624;2023-04-24T00:31:35;4.33;;;3.93;;
9997;SDS011;5038;53.064;8.624;2023-04-24T00:34:04;4.20;;;3.80;;
9997;SDS011;5038;53.064;8.624;2023-04-24T00:36:34;4.87;;;4.37;;
9997;SDS011;5038;53.064;8.624;2023-04-24T00:39:02;4.50;;;4.10;;
9997;SDS011;5038;53.064;8.624;2023-04-24T00:41:30;4.70;;;4.00;;
9997;SDS011;5038;53.064;8.624;2023-04-24T00:43:58;4.20;;;3.63;;
9997;SDS011;5038;53.064;8.624;2023-04-24T00:46:26;4.53;;;3.57;;
9997;SDS011;5038;53.064;8.624;2023-04-24T00:48:55;4.17;;;3.00;;
9997;SDS011;5038;53.064;8.624;2023-04-24T00:51:23;3.63;;;3.23;;
9997;SDS011;5038;53.064;8.624;2023-04-24T00:53:53;4.00;;;3.30;;
9997;SDS011;5038;53.064;8.624;2023-04-24T00:56:21;3.50;;;3.20;;
9997;SDS011;5038;53.064;8.624;2023-04-24T00:58:49;3.80;;;3.10;;
9997;SDS011;5038;53.064;8.624;2023-04-24T01:01:18;4.10;;;3.30;;
9997;SDS011;5038;53.064;8.624;2023-04-24T01:03:51;4.00;;;3.00;;
9997;SDS011;5038;53.064;8.624;2023-04-24T01:06:21;4.13;;;3.30;;
9997;SDS011;5038;53.064;8.624;2023-04-24T01:08:53;4.47;;;3.13;;
9997;SDS011;5038;53.064;8.624;2023-04-24T01:11:22;3.50;;;3.10;;
9997;SDS011;5038;53.064;8.624;2023-04-24T01:13:50;4.37;;;3.97;;
9997;SDS011;5038;53.064;8.624;2023-04-24T01:16:18;4.30;;;3.90;;
9997;SDS011;5038;53.064;8.624;2023-04-24T01:18:50;4.30;;;3.80;;
9997;SDS011;5038;53.064;8.624;2023-04-24T01:21:18;4.23;;;3.80;;
9997;SDS011;5038;53.064;8.624;2023-04-24T01:23:51;4.30;;;3.90;;
9997;SDS011;5038;53.064;8.624;2023-04-24T01:26:19;4.13;;;3.70;;
9997;SDS011;5038;53.064;8.624;2023-04-24T01:28:47;3.50;;;3.20;;
9997;SDS011;5038;53.064;8.624;2023-04-24T01:31:16;4.50;;;3.97;;
9997;SDS011;5038;53.064;8.624;2023-04-24T01:33:44;4.40;;;4.00;;
9997;SDS011;5038;53.064;8.624;2023-04-24T01:36:12;4.13;;;3.73;;
9997;SDS011;5038;53.064;8.624;2023-04-24T01:38:41;4.60;;;3.87;;
9997;SDS011;5038;53.064;8.624;2023-04-24T01:41:11;3.90;;;3.50;;
9997;SDS011;5038;53.064;8.624;2023-04-24T01:43:39;4.20;;;3.70;;
9997;SDS011;5038;53.064;8.624;2023-04-24T01:46:07;3.40;;;3.10;;
9997;SDS011;5038;53.064;8.624;2023-04-24T01:48:36;3.83;;;3.43;;
9997;SDS011;5038;53.064;8.624;2023-04-24T01:51:04;3.90;;;3.40;;
9997;SDS011;5038;53.064;8.624;2023-04-24T01:53:32;3.83;;;3.17;;
9997;SDS011;5038;53.064;8.624;2023-04-24T01:56:01;4.17;;;3.70;;
9997;SDS011;5038;53.064;8.624;2023-04-24T01:58:32;5.33;;;3.53;;
9997;SDS011;5038;53.064;8.624;2023-04-24T02:01:01;3.80;;;3.40;;
9997;SDS011;5038;53.064;8.624;2023-04-24T02:03:29;3.60;;;2.57;;
9997;SDS011;5038;53.064;8.624;2023-04-24T02:05:58;4.20;;;3.50;;
9997;SDS011;5038;53.064;8.624;2023-04-24T02:08:26;3.80;;;3.40;;
9997;SDS011;5038;53.064;8.624;2023-04-24T02:10:54;4.10;;;3.70;;
9997;SDS011;5038;53.064;8.624;2023-04-24T02:13:23;4.40;;;3.90;;
9997;SDS011;5038;53.064;8.624;2023-04-24T02:15:52;4.00;;;3.60;;
9997;SDS011;5038;53.064;8.624;2023-04-24T02:18:22;4.27;;;3.87;;
9997;SDS011;5038;53.064;8.624;2023-04-24T02:20:50;5.03;;;4.00;;
9997;SDS011;5038;53.064;8.624;2023-04-24T02:23:20;4.47;;;3.57;;
9997;SDS011;5038;53.064;8.624;2023-04-24T02:25:48;3.83;;;3.37;;
9997;SDS011;5038;53.064;8.624;2023-04-24T02:28:16;4.50;;;3.90;;
9997;SDS011;5038;53.064;8.624;2023-04-24T02:30:44;4.23;;;3.83;;
9997;SDS011;5038;53.064;8.624;2023-04-24T02:33:14;5.50;;;5.10;;
9997;SDS011;5038;53.064;8.624;2023-04-24T02:35:42;5.60;;;5.10;;
9997;SDS011;5038;53.064;8.624;2023-04-24T02:38:10;6.00;;;5.50;;
9997;SDS011;5038;53.064;8.624;2023-04-24T02:40:38;6.33;;;5.80;;
9997;SDS011;5038;53.064;8.624;2023-04-24T02:43:09;6.97;;;6.37;;
9997;SDS011;5038;53.064;8.624;2023-04-24T02:45:37;7.40;;;6.80;;
9997;SDS011;5038;53.064;8.624;2023-04-24T02:48:05;8.80;;;8.00;;
9997;SDS011;5038;53.064;8.624;2023-04-24T02:50:34;7.87;;;7.27;;
9997;SDS011;5038;53.064;8.624;2023-04-24T02:53:02;8.50;;;7.80;;
9997;SDS011;5038;53.064;8.624;2023-04-24T02:55:31;9.20;;;8.30;;
9997;SDS011;5038;53.064;8.624;2023-04-24T02:57:59;9.03;;;8.37;;
9997;SDS011;5038;53.064;8.624;2023-04-24T03:00:27;9.13;;;8.33;;
9997;SDS011;5038;53.064;8.624;2023-04-24T03:02:55;9.57;;;8.87;;
9997;SDS011;5038;53.064;8.624;2023-04-24T03:05:24;9.03;;;8.33;;
9997;SDS011;5038;53.064;8.624;2023-04-24T03:07:55;8.60;;;7.90;;
9997;SDS011;5038;53.064;8.624;2023-04-24T03:10:23;8.57;;;7.93;;
9997;SDS011;5038;53.064;8.624;2023-04-24T03:12:51;8.70;;;8.00;;
9997;SDS011;5038;53.064;8.624;2023-04-24T03:15:21;9.63;;;8.83;;
9997;SDS011;5038;53.064;8.624;2023-04-24T03:17:49;9.30;;;8.50;;
9997;SDS011;5038;53.064;8.624;2023-04-24T03:20:19;9.07;;;8.23;;
9997;SDS011;5038;53.064;8.624;2023-04-24T03:22:48;9.40;;;8.60;;
9997;SDS011;5038;53.064;8.624;2023-04-24T03:25:18;9.20;;;8.43;;
9997;SDS011;5038;53.064;8.624;2023-04-24T03:27:46;8.87;;;8.17;;
9997;SDS011;5038;53.064;8.624;2023-04-24T03:30:26;8.67;;;7.97;;
9997;SDS011;5038;53.064;8.624;2023-04-24T03:32:58;9.57;;;8.87;;
9997;SDS011;5038;53.064;8.624;2023-04-24T03:35:29;9.20;;;8.50;;
9997;SDS011;5038;53.064;8.624;2023-04-24T03:38:01;9.50;;;8.60;;
9997;SDS011;5038;53.064;8.624;2023-04-24T03:40:55;7.57;;;6.97;;
9997;SDS011;5038;53.064;8.624;2023-04-24T03:43:47;9.57;;;8.70;;
9997;SDS011;5038;53.064;8.624;2023-04-24T03:46:15;8.60;;;7.90;;
9997;SDS011;5038;53.064;8.624;2023-04-24T03:48:50;9.80;;;8.90;;
9997;SDS011;5038;53.064;8.624;2023-04-24T03:51:22;9.30;;;8.50;;
9997;SDS011;5038;53.064;8.624;2023-04-24T03:53:54;8.90;;;8.20;;
9997;SDS011;5038;53.064;8.624;2023-04-24T03:56:26;9.97;;;9.17;;
9997;SDS011;5038;53.064;8.624;2023-04-24T03:58:54;9.47;;;8.67;;
9997;SDS011;5038;53.064;8.624;2023-04-24T04:01:22;9.23;;;8.53;;
9997;SDS011;5038;53.064;8.624;2023-04-24T04:03:57;9.60;;;8.80;;
9997;SDS011;5038;53.064;8.624;2023-04-24T04:06:26;8.90;;;8.20;;
9997;SDS011;5038;53.064;8.624;2023-04-24T04:08:58;9.57;;;8.67;;
9997;SDS011;5038;53.064;8.624;2023-04-24T04:11:28;9.17;;;8.40;;
9997;SDS011;5038;53.064;8.624;2023-04-24T04:13:57;9.20;;;8.40;;
9997;SDS011;5038;53.064;8.624;2023-04-24T04:16:25;9.47;;;8.57;;
9997;SDS011;5038;53.064;8.624;2023-04-24T04:18:59;8.60;;;7.90;;
9997;SDS011;5038;53.064;8.624;2023-04-24T04:21:29;7.50;;;6.90;;
9997;SDS011;5038;53.064;8.624;2023-04-24T04:24:09;7.53;;;6.83;;
9997;SDS011;5038;53.064;8.624;2023-04-24T04:26:43;7.50;;;6.90;;
9997;SDS011;5038;53.064;8.624;2023-04-24T04:29:22;7.60;;;6.90;;
9997;SDS011;5038;53.064;8.624;2023-04-24T04:31:51;6.90;;;6.30;;
9997;SDS011;5038;53.064;8.624;2023-04-24T04:34:20;6.97;;;6.37;;
9997;SDS011;5038;53.064;8.624;2023-04-24T04:36:49;6.73;;;6.03;;
9997;SDS011;5038;53.064;8.624;2023-04-24T04:39:39;7.27;;;6.57;;
9997;SDS011;5038;53.064;8.624;2023-04-24T04:42:32;7.00;;;6.40;;
9997;SDS011;5038;53.064;8.624;2023-04-24T04:45:00;6.37;;;5.77;;
9997;SDS011;5038;53.064;8.624;2023-04-24T04:47:41;6.53;;;5.93;;
9997;SDS011;5038;53.064;8.624;2023-04-24T04:50:09;7.17;;;6.47;;
9997;SDS011;5038;53.064;8.624;2023-04-24T04:52:38;6.33;;;5.77;;
9997;SDS011;5038;53.064;8.624;2023-04-24T04:55:17;7.73;;;6.90;;
9997;SDS011;5038;53.064;8.624;2023-04-24T04:58:17;6.90;;;6.20;;
9997;SDS011;5038;53.064;8.624;2023-04-24T05:00:49;5.53;;;5.03;;
9997;SDS011;5038;53.064;8.624;2023-04-24T05:03:25;6.73;;;6.03;;
9997;SDS011;5038;53.064;8.624;2023-04-24T05:05:59;6.03;;;5.43;;
9997;SDS011;5038;53.064;8.624;2023-04-24T05:08:31;7.17;;;6.43;;
9997;SDS011;5038;53.064;8.624;2023-04-24T05:11:00;6.23;;;5.30;;
9997;SDS011;5038;53.064;8.624;2023-04-24T05:13:31;5.97;;;5.37;;
9997;SDS011;5038;53.064;8.624;2023-04-24T05:16:29;6.50;;;5.90;;
9997;SDS011;5038;53.064;8.624;2023-04-24T05:18:58;7.37;;;6.60;;
9997;SDS011;5038;53.064;8.624;2023-04-24T05:21:32;6.63;;;5.90;;
9997;SDS011;5038;53.064;8.624;2023-04-24T05:24:00;7.30;;;6.60;;
9997;SDS011;5038;53.064;8.624;2023-04-24T05:26:45;7.23;;;6.63;;
9997;SDS011;5038;53.064;8.624;2023-04-24T05:29:18;7.50;;;6.80;;
9997;SDS011;5038;53.064;8.624;2023-04-24T05:31:46;7.50;;;6.67;;
9997;SDS011;5038;53.064;8.624;2023-04-24T05:34:15;7.23;;;6.53;;
9997;SDS011;5038;53.064;8.624;2023-04-24T05:36:44;7.17;;;6.23;;
9997;SDS011;5038;53.064;8.624;2023-04-24T05:39:13;7.20;;;6.60;;
9997;SDS011;5038;53.064;8.624;2023-04-24T05:41:41;8.80;;;8.00;;
9997;SDS011;5038;53.064;8.624;2023-04-24T05:44:09;9.90;;;9.00;;
9997;SDS011;5038;53.064;8.624;2023-04-24T05:46:39;9.10;;;8.30;;
9997;SDS011;5038;53.064;8.624;2023-04-24T05:49:08;10.20;;;9.20;;
9997;SDS011;5038;53.064;8.624;2023-04-24T05:51:37;10.90;;;9.07;;
9997;SDS011;5038;53.064;8.624;2023-04-24T05:54:05;9.97;;;9.17;;
9997;SDS011;5038;53.064;8.624;2023-04-24T05:56:34;10.10;;;8.27;;
9997;SDS011;5038;53.064;8.624;2023-04-24T05:59:04;10.80;;;9.73;;
9997;SDS011;5038;53.064;8.624;2023-04-24T06:01:32;10.07;;;9.17;;
9997;SDS011;5038;53.064;8.624;2023-04-24T06:04:09;10.50;;;9.60;;
9997;SDS011;5038;53.064;8.624;2023-04-24T06:06:40;10.87;;;9.87;;
9997;SDS011;5038;53.064;8.624;2023-04-24T06:09:09;9.47;;;8.57;;
9997;SDS011;5038;53.064;8.624;2023-04-24T06:11:38;10.00;;;9.17;;
9997;SDS011;5038;53.064;8.624;2023-04-24T06:14:13;10.57;;;9.50;;
9997;SDS011;5038;53.064;8.624;2023-04-24T06:17:04;11.17;;;10.17;;
9997;SDS011;5038;53.064;8.624;2023-04-24T06:19:38;10.97;;;9.97;;
9997;SDS011;5038;53.064;8.624;2023-04-24T06:22:07;10.67;;;9.67;;
9997;SDS011;5038;53.064;8.624;2023-04-24T06:24:36;10.47;;;9.57;;
9997;SDS011;5038;53.064;8.624;2023-04-24T06:27:04;10.97;;;9.97;;
9997;SDS011;5038;53.064;8.624;2023-04-24T06:29:33;10.80;;;9.83;;
9997;SDS011;5038;53.064;8.624;2023-04-24T06:32:01;11.63;;;10.53;;
9997;SDS011;5038;53.064;8.624;2023-04-24T06:34:31;10.67;;;9.77;;
9997;SDS011;5038;53.064;8.624;2023-04-24T06:37:02;11.37;;;10.40;;
9997;SDS011;5038;53.064;8.624;2023-04-24T06:39:30;12.10;;;11.00;;
9997;SDS011;5038;53.064;8.624;2023-04-24T06:41:58;11.23;;;10.27;;
9997;SDS011;5038;53.064;8.624;2023-04-24T06:44:26;12.50;;;11.40;;
9997;SDS011;5038;53.064;8.624;2023-04-24T06:46:54;13.10;;;12.00;;
9997;SDS011;5038;53.064;8.624;2023-04-24T06:49:25;13.33;;;12.13;;
9997;SDS011;5038;53.064;8.624;2023-04-24T06:51:53;13.43;;;12.33;;
9997;SDS011;5038;53.064;8.624;2023-04-24T06:54:23;13.17;;;12.07;;
9997;SDS011;5038;53.064;8.624;2023-04-24T06:56:51;14.33;;;12.83;;
9997;SDS011;5038;53.064;8.624;2023-04-24T06:59:19;14.33;;;13.10;;
9997;SDS011;5038;53.064;8.624;2023-04-24T07:01:47;14.00;;;12.90;;
9997;SDS011;5038;53.064;8.624;2023-04-24T07:04:22;14.90;;;13.60;;
9997;SDS011;5038;53.064;8.624;2023-04-24T07:06:52;15.30;;;13.90;;
9997;SDS011;5038;53.064;8.624;2023-04-24T07:09:23;15.00;;;13.40;;
9997;SDS011;5038;53.064;8.624;2023-04-24T07:11:53;14.47;;;13.07;;
9997;SDS011;5038;53.064;8.624;2023-04-24T07:14:22;14.07;;;12.87;;
9997;SDS011;5038;53.064;8.624;2023-04-24T07:16:50;14.80;;;13.50;;
9997;SDS011;5038;53.064;8.624;2023-04-24T07:19:19;14.20;;;13.10;;
9997;SDS011;5038;53.064;8.624;2023-04-24T07:21:47;15.10;;;13.90;;
9997;SDS011;5038;53.064;8.624;2023-04-24T07:24:15;14.10;;;12.90;;
9997;SDS011;5038;53.064;8.624;2023-04-24T07:26:46;15.43;;;14.03;;
9997;SDS011;5038;53.064;8.624;2023-04-24T07:29:14;13.80;;;12.50;;
9997;SDS011;5038;53.064;8.624;2023-04-24T07:31:42;14.43;;;13.23;;
9997;SDS011;5038;53.064;8.624;2023-04-24T07:34:10;13.30;;;12.10;;
9997;SDS011;5038;53.064;8.624;2023-04-24T07:36:38;14.13;;;12.80;;
9997;SDS011;5038;53.064;8.624;2023-04-24T07:39:08;13.40;;;12.10;;
9997;SDS011;5038;53.064;8.624;2023-04-24T07:41:36;13.07;;;11.87;;
9997;SDS011;5038;53.064;8.624;2023-04-24T07:44:06;12.77;;;11.57;;
9997;SDS011;5038;53.064;8.624;2023-04-24T07:46:34;12.83;;;11.60;;
9997;SDS011;5038;53.064;8.624;2023-04-24T07:49:02;13.43;;;11.97;;
9997;SDS011;5038;53.064;8.624;2023-04-24T07:51:39;13.87;;;12.67;;
9997;SDS011;5038;53.064;8.624;2023-04-24T07:54:08;12.43;;;11.33;;
9997;SDS011;5038;53.064;8.624;2023-04-24T07:56:36;13.20;;;12.00;;
9997;SDS011;5038;53.064;8.624;2023-04-24T07:59:07;11.40;;;10.40;;
9997;SDS011;5038;53.064;8.624;2023-04-24T08:01:36;12.13;;;11.00;;
9997;SDS011;5038;53.064;8.624;2023-04-24T08:04:04;13.00;;;11.90;;
9997;SDS011;5038;53.064;8.624;2023-04-24T08:06:33;12.67;;;11.57;;
9997;SDS011;5038;53.064;8.624;2023-04-24T08:09:01;11.90;;;10.80;;
9997;SDS011;5038;53.064;8.624;2023-04-24T08:11:30;13.17;;;11.93;;
9997;SDS011;5038;53.064;8.624;2023-04-24T08:13:58;13.03;;;11.93;;
9997;SDS011;5038;53.064;8.624;2023-04-24T08:16:27;13.30;;;12.10;;
9997;SDS011;5038;53.064;8.624;2023-04-24T08:18:56;14.13;;;12.80;;
9997;SDS011;5038;53.064;8.624;2023-04-24T08:21:24;13.97;;;12.43;;
9997;SDS011;5038;53.064;8.624;2023-04-24T08:23:53;13.60;;;12.40;;
9997;SDS011;5038;53.064;8.624;2023-04-24T08:26:21;13.03;;;11.93;;
9997;SDS011;5038;53.064;8.624;2023-04-24T08:28:50;15.73;;;14.33;;
9997;SDS011;5038;53.064;8.624;2023-04-24T08:31:18;16.67;;;15.07;;
9997;SDS011;5038;53.064;8.624;2023-04-24T08:33:48;13.30;;;12.07;;
9997;SDS011;5038;53.064;8.624;2023-04-24T08:36:16;12.47;;;11.27;;
9997;SDS011;5038;53.064;8.624;2023-04-24T08:38:44;12.23;;;11.10;;
9997;SDS011;5038;53.064;8.624;2023-04-24T08:41:13;13.00;;;11.80;;
9997;SDS011;5038;53.064;8.624;2023-04-24T08:43:42;13.70;;;12.50;;
9997;SDS011;5038;53.064;8.624;2023-04-24T08:46:13;12.87;;;11.77;;
9997;SDS011;5038;53.064;8.624;2023-04-24T08:48:42;11.93;;;10.93;;
9997;SDS011;5038;53.064;8.624;2023-04-24T08:51:12;13.67;;;12.13;;
9997;SDS011;5038;53.064;8.624;2023-04-24T08:53:40;12.97;;;11.77;;
9997;SDS011;5038;53.064;8.624;2023-04-24T08:56:09;13.17;;;12.00;;
9997;SDS011;5038;53.064;8.624;2023-04-24T08:58:39;13.33;;;12.27;;
9997;SDS011;5038;53.064;8.624;2023-04-24T09:01:07;12.67;;;11.63;;
9997;SDS011;5038;53.064;8.624;2023-04-24T09:03:36;12.70;;;11.60;;
9997;SDS011;5038;53.064;8.624;2023-04-24T09:06:06;12.03;;;10.93;;
9997;SDS011;5038;53.064;8.624;2023-04-24T09:08:38;13.80;;;12.43;;
9997;SDS011;5038;53.064;8.624;2023-04-24T09:11:06;14.07;;;12.77;;
9997;SDS011;5038;53.064;8.624;2023-04-24T09:13:35;13.53;;;12.33;;
9997;SDS011;5038;53.064;8.624;2023-04-24T09:16:04;14.07;;;12.87;;
9997;SDS011;5038;53.064;8.624;2023-04-24T09:18:33;13.50;;;12.20;;
9997;SDS011;5038;53.064;8.624;2023-04-24T09:21:02;14.17;;;12.87;;
9997;SDS011;5038;53.064;8.624;2023-04-24T09:23:32;15.53;;;13.97;;
9997;SDS011;5038;53.064;8.624;2023-04-24T09:26:02;14.93;;;13.63;;
9997;SDS011;5038;53.064;8.624;2023-04-24T09:28:32;14.90;;;13.50;;
9997;SDS011;5038;53.064;8.624;2023-04-24T09:31:06;14.10;;;12.80;;
9997;SDS011;5038;53.064;8.624;2023-04-24T09:33:35;16.27;;;14.70;;
9997;SDS011;5038;53.064;8.624;2023-04-24T09:36:04;19.47;;;17.77;;
9997;SDS011;5038;53.064;8.624;2023-04-24T09:38:34;21.30;;;19.60;;
9997;SDS011;5038;53.064;8.624;2023-04-24T09:41:05;23.47;;;21.30;;
9997;SDS011;5038;53.064;8.624;2023-04-24T09:43:34;22.73;;;21.00;;
9997;SDS011;5038;53.064;8.624;2023-04-24T09:46:04;22.17;;;20.27;;
9997;SDS011;5038;53.064;8.624;2023-04-24T09:48:35;22.17;;;20.37;;
9997;SDS011;5038;53.064;8.624;2023-04-24T09:51:05;21.93;;;20.20;;
9997;SDS011;5038;53.064;8.624;2023-04-24T09:53:36;18.93;;;17.20;;
9997;SDS011;5038;53.064;8.624;2023-04-24T09:56:12;21.33;;;19.50;;
9997;SDS011;5038;53.064;8.624;2023-04-24T09:58:40;20.83;;;19.00;;
9997;SDS011;5038;53.064;8.624;2023-04-24T10:01:08;20.83;;;19.00;;
9997;SDS011;5038;53.064;8.624;2023-04-24T10:03:36;21.60;;;19.67;;
9997;SDS011;5038;53.064;8.624;2023-04-24T10:06:04;20.77;;;19.07;;
9997;SDS011;5038;53.064;8.624;2023-04-24T10:08:36;19.90;;;18.30;;
9997;SDS011;5038;53.064;8.624;2023-04-24T10:11:04;19.60;;;18.00;;
9997;SDS011;5038;53.064;8.624;2023-04-24T10:13:34;19.13;;;17.53;;
9997;SDS011;5038;53.064;8.624;2023-04-24T10:16:03;20.10;;;18.30;;
9997;SDS011;5038;53.064;8.624;2023-04-24T10:18:32;19.67;;;17.87;;
9997;SDS011;5038;53.064;8.624;2023-04-24T10:21:00;18.73;;;17.10;;
9997;SDS011;5038;53.064;8.624;2023-04-24T10:23:29;20.37;;;18.37;;
9997;SDS011;5038;53.064;8.624;2023-04-24T10:25:58;19.67;;;17.97;;
9997;SDS011;5038;53.064;8.624;2023-04-24T10:28:27;18.63;;;17.13;;
9997;SDS011;5038;53.064;8.624;2023-04-24T10:30:59;18.00;;;16.70;;
9997;SDS011;5038;53.064;8.624;2023-04-24T10:33:28;16.00;;;14.80;;
9997;SDS011;5038;53.064;8.624;2023-04-24T10:35:57;16.10;;;14.90;;
9997;SDS011;5038;53.064;8.624;2023-04-24T10:38:26;16.63;;;15.33;;
9997;SDS011;5038;53.064;8.624;2023-04-24T10:41:06;17.37;;;15.87;;
9997;SDS011;5038;53.064;8.624;2023-04-24T10:43:35;16.57;;;15.20;;
9997;SDS011;5038;53.064;8.624;2023-04-24T10:46:05;17.90;;;16.40;;
9997;SDS011;5038;53.064;8.624;2023-04-24T10:48:34;16.67;;;15.37;;
9997;SDS011;5038;53.064;8.624;2023-04-24T10:51:02;16.90;;;15.60;;
9997;SDS011;5038;53.064;8.624;2023-04-24T10:53:31;16.93;;;15.63;;
9997;SDS011;5038;53.064;8.624;2023-04-24T10:56:03;17.53;;;16.23;;
9997;SDS011;5038;53.064;8.624;2023-04-24T10:58:36;17.70;;;16.40;;
9997;SDS011;5038;53.064;8.624;2023-04-24T11:01:07;17.17;;;15.87;;
9997;SDS011;5038;53.064;8.624;2023-04-24T11:03:36;15.67;;;14.47;;
9997;SDS011;5038;53.064;8.624;2023-04-24T11:06:08;15.17;;;13.97;;
9997;SDS011;5038;53.064;8.624;2023-04-24T11:08:38;14.23;;;13.13;;
9997;SDS011;5038;53.064;8.624;2023-04-24T11:11:08;15.00;;;13.80;;
9997;SDS011;5038;53.064;8.624;2023-04-24T11:16:41;15.40;;;14.20;;
9997;SDS011;5038;53.064;8.624;2023-04-24T11:19:18;15.40;;;14.20;;
9997;SDS011;5038;53.064;8.624;2023-04-24T11:21:54;15.13;;;14.03;;
9997;SDS011;5038;53.064;8.624;2023-04-24T11:24:30;14.30;;;13.30;;
9997;SDS011;5038;53.064;8.624;2023-04-24T11:27:11;14.30;;;13.20;;
9997;SDS011;5038;53.064;8.624;2023-04-24T11:29:42;14.20;;;13.10;;
9997;SDS011;5038;53.064;8.624;2023-04-24T11:32:17;16.33;;;12.63;;
9997;SDS011;5038;53.064;8.624;2023-04-24T11:34:55;13.40;;;12.23;;
9997;SDS011;5038;53.064;8.624;2023-04-24T11:37:26;18.17;;;16.67;;
9997;SDS011;5038;53.064;8.624;2023-04-24T11:39:56;13.30;;;12.20;;
9997;SDS011;5038;53.064;8.624;2023-04-24T11:42:26;13.70;;;12.60;;
9997;SDS011;5038;53.064;8.624;2023-04-24T11:44:55;14.17;;;13.07;;
9997;SDS011;5038;53.064;8.624;2023-04-24T11:47:29;12.87;;;11.80;;
9997;SDS011;5038;53.064;8.624;2023-04-24T11:49:57;10.80;;;9.90;;
9997;SDS011;5038;53.064;8.624;2023-04-24T11:52:27;10.47;;;9.67;;
9997;SDS011;5038;53.064;8.624;2023-04-24T11:54:56;11.40;;;10.47;;
9997;SDS011;5038;53.064;8.624;2023-04-24T11:57:25;11.50;;;10.50;;
9997;SDS011;5038;53.064;8.624;2023-04-24T11:59:55;12.77;;;11.60;;
9997;SDS011;5038;53.064;8.624;2023-04-24T12:02:23;13.40;;;12.30;;
9997;SDS011;5038;53.064;8.624;2023-04-24T12:04:54;11.77;;;10.77;;
9997;SDS011;5038;53.064;8.624;2023-04-24T12:07:23;11.67;;;10.67;;
9997;SDS011;5038;53.064;8.624;2023-04-24T12:09:55;12.27;;;11.23;;
9997;SDS011;5038;53.064;8.624;2023-04-24T12:12:27;11.40;;;10.50;;
9997;SDS011;5038;53.064;8.624;2023-04-24T12:14:56;11.73;;;10.73;;
9997;SDS011;5038;53.064;8.624;2023-04-24T12:17:26;11.20;;;10.30;;
9997;SDS011;5038;53.064;8.624;2023-04-24T12:19:59;11.97;;;10.97;;
9997;SDS011;5038;53.064;8.624;2023-04-24T12:22:42;11.40;;;10.40;;
9997;SDS011;5038;53.064;8.624;2023-04-24T12:25:11;11.20;;;10.20;;
9997;SDS011;5038;53.064;8.624;2023-04-24T12:27:40;12.40;;;11.40;;
9997;SDS011;5038;53.064;8.624;2023-04-24T12:30:10;11.43;;;10.43;;
9997;SDS011;5038;53.064;8.624;2023-04-24T12:32:43;11.50;;;10.50;;
9997;SDS011;5038;53.064;8.624;2023-04-24T12:35:13;12.10;;;11.00;;
9997;SDS011;5038;53.064;8.624;2023-04-24T12:37:46;11.00;;;10.10;;
9997;SDS011;5038;53.064;8.624;2023-04-24T12:40:16;10.23;;;9.27;;
9997;SDS011;5038;53.064;8.624;2023-04-24T12:42:46;9.20;;;7.90;;
9997;SDS011;5038;53.064;8.624;2023-04-24T12:45:15;6.60;;;6.00;;
9997;SDS011;5038;53.064;8.624;2023-04-24T12:47:44;6.77;;;6.07;;
9997;SDS011;5038;53.064;8.624;2023-04-24T12:50:15;12.47;;;10.80;;
9997;SDS011;5038;53.064;8.624;2023-04-24T12:52:44;14.90;;;13.40;;
9997;SDS011;5038;53.064;8.624;2023-04-24T12:55:12;16.43;;;14.53;;
9997;SDS011;5038;53.064;8.624;2023-04-24T12:57:41;16.80;;;15.30;;
9997;SDS011;5038;53.064;8.624;2023-04-24T13:00:10;17.83;;;15.97;;
9997;SDS011;5038;53.064;8.624;2023-04-24T13:02:38;19.60;;;17.77;;
9997;SDS011;5038;53.064;8.624;2023-04-24T13:05:07;17.07;;;15.50;;
9997;SDS011;5038;53.064;8.624;2023-04-24T13:07:39;18.17;;;16.57;;
9997;SDS011;5038;53.064;8.624;2023-04-24T13:10:08;17.03;;;15.47;;
9997;SDS011;5038;53.064;8.624;2023-04-24T13:12:36;16.80;;;15.20;;
9997;SDS011;5038;53.064;8.624;2023-04-24T13:15:05;16.63;;;15.03;;
9997;SDS011;5038;53.064;8.624;2023-04-24T13:17:34;13.57;;;12.30;;
9997;SDS011;5038;53.064;8.624;2023-04-24T13:20:02;13.30;;;12.00;;
9997;SDS011;5038;53.064;8.624;2023-04-24T13:22:31;13.67;;;12.37;;
9997;SDS011;5038;53.064;8.624;2023-04-24T13:25:01;12.80;;;11.60;;
9997;SDS011;5038;53.064;8.624;2023-04-24T13:27:29;12.77;;;11.47;;
9997;SDS011;5038;53.064;8.624;2023-04-24T13:29:58;13.90;;;12.50;;
9997;SDS011;5038;53.064;8.624;2023-04-24T13:32:26;14.43;;;13.13;;
9997;SDS011;5038;53.064;8.624;2023-04-24T13:34:56;14.80;;;13.40;;
9997;SDS011;5038;53.064;8.624;2023-04-24T13:37:24;15.23;;;13.67;;
9997;SDS011;5038;53.064;8.624;2023-04-24T13:39:52;13.93;;;12.63;;
9997;SDS011;5038;53.064;8.624;2023-04-24T13:42:22;13.67;;;12.27;;
9997;SDS011;5038;53.064;8.624;2023-04-24T13:44:50;15.07;;;12.20;;
9997;SDS011;5038;53.064;8.624;2023-04-24T13:47:18;12.40;;;11.17;;
9997;SDS011;5038;53.064;8.624;2023-04-24T13:49:48;13.20;;;11.87;;
9997;SDS011;5038;53.064;8.624;2023-04-24T13:52:16;13.10;;;11.70;;
9997;SDS011;5038;53.064;8.624;2023-04-24T13:54:44;12.43;;;10.73;;
9997;SDS011;5038;53.064;8.624;2023-04-24T13:57:13;12.53;;;9.87;;
9997;SDS011;5038;53.064;8.624;2023-04-24T13:59:44;11.53;;;10.23;;
9997;SDS011;5038;53.064;8.624;2023-04-24T14:02:12;10.93;;;9.27;;
9997;SDS011;5038;53.064;8.624;2023-04-24T14:04:41;12.33;;;9.60;;
9997;SDS011;5038;53.064;8.624;2023-04-24T14:07:09;11.63;;;10.07;;
9997;SDS011;5038;53.064;8.624;2023-04-24T14:09:37;10.53;;;8.80;;
9997;SDS011;5038;53.064;8.624;2023-04-24T14:12:05;10.43;;;8.80;;
9997;SDS011;5038;53.064;8.624;2023-04-24T14:14:34;9.20;;;8.27;;
9997;SDS011;5038;53.064;8.624;2023-04-24T14:17:03;9.87;;;8.43;;
9997;SDS011;5038;53.064;8.624;2023-04-24T14:19:32;10.60;;;8.40;;
9997;SDS011;5038;53.064;8.624;2023-04-24T14:22:00;12.13;;;9.40;;
9997;SDS011;5038;53.064;8.624;2023-04-24T14:24:28;13.97;;;9.77;;
9997;SDS011;5038;53.064;8.624;2023-04-24T14:26:56;10.57;;;9.57;;
9997;SDS011;5038;53.064;8.624;2023-04-24T14:29:25;12.43;;;11.13;;
9997;SDS011;5038;53.064;8.624;2023-04-24T14:31:53;11.20;;;9.40;;
9997;SDS011;5038;53.064;8.624;2023-04-24T14:34:22;10.43;;;9.40;;
9997;SDS011;5038;53.064;8.624;2023-04-24T14:36:51;12.73;;;10.47;;
9997;SDS011;5038;53.064;8.624;2023-04-24T14:39:20;12.90;;;9.73;;
9997;SDS011;5038;53.064;8.624;2023-04-24T14:41:48;11.50;;;10.10;;
9997;SDS011;5038;53.064;8.624;2023-04-24T14:44:16;13.27;;;9.70;;
9997;SDS011;5038;53.064;8.624;2023-04-24T14:46:44;11.63;;;9.47;;
9997;SDS011;5038;53.064;8.624;2023-04-24T14:49:13;11.10;;;9.60;;
9997;SDS011;5038;53.064;8.624;2023-04-24T14:51:42;11.53;;;10.40;;
9997;SDS011;5038;53.064;8.624;2023-04-24T14:54:10;12.60;;;10.37;;
9997;SDS011;5038;53.064;8.624;2023-04-24T14:56:38;13.90;;;10.83;;
9997;SDS011;5038;53.064;8.624;2023-04-24T14:59:07;11.93;;;10.73;;
9997;SDS011;5038;53.064;8.624;2023-04-24T15:01:35;11.60;;;10.40;;
9997;SDS011;5038;53.064;8.624;2023-04-24T15:04:03;14.67;;;10.60;;
9997;SDS011;5038;53.064;8.624;2023-04-24T15:06:31;12.50;;;9.40;;
9997;SDS011;5038;53.064;8.624;2023-04-24T15:09:01;12.03;;;9.57;;
9997;SDS011;5038;53.064;8.624;2023-04-24T15:11:29;11.17;;;8.57;;
9997;SDS011;5038;53.064;8.624;2023-04-24T15:13:57;11.03;;;7.50;;
9997;SDS011;5038;53.064;8.624;2023-04-24T15:16:25;9.23;;;7.13;;
9997;SDS011;5038;53.064;8.624;2023-04-24T15:18:54;11.20;;;6.87;;
9997;SDS011;5038;53.064;8.624;2023-04-24T15:21:23;8.33;;;5.93;;